sensor_id;sensor_type;location;lat;lon;timestamp;P1;durP1;ratioP1;P2;durP2;ratioP2
53875;SDS011;39789;53.216;5.624;2022-07-04T00:02:19;3.13;;;2.80;;
53875;SDS011;39789;53.216;5.624;2022-07-04T00:04:45;4.35;;;3.40;;
53875;SDS011;39789;53.216;5.624;2022-07-04T00:07:11;4.60;;;3.13;;
53875;SDS011;39789;53.216;5.624;2022-07-04T00:09:36;6.68;;;3.00;;
53875;SDS011;39789;53.216;5.624;2022-07-04T00:12:02;4.55;;;2.90;;
53875;SDS011;39789;53.216;5.624;2022-07-04T00:14:28;4.20;;;3.28;;
53875;SDS011;39789;53.216;5.624;2022-07-04T00:16:53;5.22;;;3.33;;
53875;SDS011;39789;53.216;5.624;2022-07-04T00:19:19;4.57;;;3.00;;
53875;SDS011;39789;53.216;5.624;2022-07-04T00:21:44;5.13;;;3.20;;
53875;SDS011;39789;53.216;5.624;2022-07-04T00:24:10;3.10;;;2.80;;
53875;SDS011;39789;53.216;5.624;2022-07-04T00:26:36;6.13;;;3.20;;
53875;SDS011;39789;53.216;5.624;2022-07-04T00:29:02;3.28;;;2.33;;
53875;SDS011;39789;53.216;5.624;2022-07-04T00:31:27;4.10;;;3.03;;
53875;SDS011;39789;53.216;5.624;2022-07-04T00:33:53;5.90;;;3.60;;
53875;SDS011;39789;53.216;5.624;2022-07-04T00:36:19;5.80;;;3.63;;
53875;SDS011;39789;53.216;5.624;2022-07-04T00:38:44;3.75;;;3.00;;
53875;SDS011;39789;53.216;5.624;2022-07-04T00:41:10;3.83;;;3.17;;
53875;SDS011;39789;53.216;5.624;2022-07-04T00:43:35;6.68;;;4.07;;
53875;SDS011;39789;53.216;5.624;2022-07-04T00:46:04;5.07;;;3.20;;
53875;SDS011;39789;53.216;5.624;2022-07-04T00:48:31;5.05;;;2.90;;
53875;SDS011;39789;53.216;5.624;2022-07-04T00:50:57;3.67;;;3.22;;
53875;SDS011;39789;53.216;5.624;2022-07-04T00:53:23;4.63;;;3.60;;
53875;SDS011;39789;53.216;5.624;2022-07-04T00:55:52;4.28;;;3.30;;
53875;SDS011;39789;53.216;5.624;2022-07-04T00:58:22;3.75;;;2.63;;
53875;SDS011;39789;53.216;5.624;2022-07-04T01:00:48;4.32;;;2.90;;
53875;SDS011;39789;53.216;5.624;2022-07-04T01:03:14;8.23;;;3.22;;
53875;SDS011;39789;53.216;5.624;2022-07-04T01:05:40;4.32;;;3.15;;
53875;SDS011;39789;53.216;5.624;2022-07-04T01:08:07;3.90;;;2.95;;
53875;SDS011;39789;53.216;5.624;2022-07-04T01:10:33;5.72;;;3.17;;
53875;SDS011;39789;53.216;5.624;2022-07-04T01:12:59;3.85;;;2.88;;
53875;SDS011;39789;53.216;5.624;2022-07-04T01:15:25;4.93;;;3.08;;
53875;SDS011;39789;53.216;5.624;2022-07-04T01:17:50;4.75;;;3.10;;
53875;SDS011;39789;53.216;5.624;2022-07-04T01:20:16;4.25;;;2.97;;
53875;SDS011;39789;53.216;5.624;2022-07-04T01:22:42;4.88;;;2.88;;
53875;SDS011;39789;53.216;5.624;2022-07-04T01:25:08;4.28;;;3.30;;
53875;SDS011;39789;53.216;5.624;2022-07-04T01:27:34;4.13;;;3.17;;
53875;SDS011;39789;53.216;5.624;2022-07-04T01:30:00;4.93;;;3.78;;
53875;SDS011;39789;53.216;5.624;2022-07-04T01:32:26;5.95;;;3.47;;
53875;SDS011;39789;53.216;5.624;2022-07-04T01:34:52;5.32;;;3.70;;
53875;SDS011;39789;53.216;5.624;2022-07-04T01:37:17;4.18;;;2.72;;
53875;SDS011;39789;53.216;5.624;2022-07-04T01:39:43;4.80;;;3.35;;
53875;SDS011;39789;53.216;5.624;2022-07-04T01:42:09;11.85;;;4.22;;
53875;SDS011;39789;53.216;5.624;2022-07-04T01:44:34;6.30;;;3.33;;
53875;SDS011;39789;53.216;5.624;2022-07-04T01:47:00;5.63;;;3.30;;
53875;SDS011;39789;53.216;5.624;2022-07-04T01:49:26;4.90;;;3.67;;
53875;SDS011;39789;53.216;5.624;2022-07-04T01:51:52;6.22;;;3.45;;
53875;SDS011;39789;53.216;5.624;2022-07-04T01:54:18;4.93;;;3.28;;
53875;SDS011;39789;53.216;5.624;2022-07-04T01:56:44;4.75;;;3.42;;
53875;SDS011;39789;53.216;5.624;2022-07-04T01:59:10;5.18;;;3.50;;
53875;SDS011;39789;53.216;5.624;2022-07-04T02:01:36;5.25;;;3.55;;
53875;SDS011;39789;53.216;5.624;2022-07-04T02:04:03;5.18;;;3.53;;
53875;SDS011;39789;53.216;5.624;2022-07-04T02:06:29;6.13;;;3.42;;
53875;SDS011;39789;53.216;5.624;2022-07-04T02:08:55;6.40;;;3.33;;
53875;SDS011;39789;53.216;5.624;2022-07-04T02:11:40;4.93;;;3.65;;
53875;SDS011;39789;53.216;5.624;2022-07-04T02:14:25;4.53;;;2.95;;
53875;SDS011;39789;53.216;5.624;2022-07-04T02:16:51;6.68;;;3.67;;
53875;SDS011;39789;53.216;5.624;2022-07-04T02:19:19;6.95;;;3.42;;
53875;SDS011;39789;53.216;5.624;2022-07-04T02:21:45;6.25;;;3.42;;
53875;SDS011;39789;53.216;5.624;2022-07-04T02:24:11;6.18;;;3.40;;
53875;SDS011;39789;53.216;5.624;2022-07-04T02:26:36;7.35;;;3.72;;
53875;SDS011;39789;53.216;5.624;2022-07-04T02:29:02;6.78;;;3.60;;
53875;SDS011;39789;53.216;5.624;2022-07-04T02:31:28;6.40;;;3.40;;
53875;SDS011;39789;53.216;5.624;2022-07-04T02:33:53;6.65;;;3.97;;
53875;SDS011;39789;53.216;5.624;2022-07-04T02:36:19;8.82;;;3.90;;
53875;SDS011;39789;53.216;5.624;2022-07-04T02:38:44;4.82;;;3.47;;
53875;SDS011;39789;53.216;5.624;2022-07-04T02:41:10;8.52;;;3.83;;
53875;SDS011;39789;53.216;5.624;2022-07-04T02:43:35;7.93;;;3.85;;
53875;SDS011;39789;53.216;5.624;2022-07-04T02:46:01;5.50;;;3.50;;
53875;SDS011;39789;53.216;5.624;2022-07-04T02:48:27;8.10;;;3.60;;
53875;SDS011;39789;53.216;5.624;2022-07-04T02:50:52;4.30;;;3.53;;
53875;SDS011;39789;53.216;5.624;2022-07-04T02:53:18;5.78;;;3.22;;
53875;SDS011;39789;53.216;5.624;2022-07-04T02:55:43;8.38;;;4.53;;
53875;SDS011;39789;53.216;5.624;2022-07-04T02:58:09;3.67;;;3.08;;
53875;SDS011;39789;53.216;5.624;2022-07-04T03:00:35;4.95;;;3.28;;
53875;SDS011;39789;53.216;5.624;2022-07-04T03:03:00;9.73;;;4.32;;
53875;SDS011;39789;53.216;5.624;2022-07-04T03:05:26;5.38;;;3.40;;
53875;SDS011;39789;53.216;5.624;2022-07-04T03:07:53;5.60;;;3.40;;
53875;SDS011;39789;53.216;5.624;2022-07-04T03:10:19;5.93;;;3.63;;
53875;SDS011;39789;53.216;5.624;2022-07-04T03:12:45;4.95;;;3.60;;
53875;SDS011;39789;53.216;5.624;2022-07-04T03:15:10;5.82;;;3.83;;
53875;SDS011;39789;53.216;5.624;2022-07-04T03:17:36;5.72;;;3.22;;
53875;SDS011;39789;53.216;5.624;2022-07-04T03:20:01;5.07;;;3.47;;
53875;SDS011;39789;53.216;5.624;2022-07-04T03:22:27;11.63;;;3.85;;
53875;SDS011;39789;53.216;5.624;2022-07-04T03:24:53;5.57;;;3.80;;
53875;SDS011;39789;53.216;5.624;2022-07-04T03:27:19;4.13;;;3.15;;
53875;SDS011;39789;53.216;5.624;2022-07-04T03:29:45;9.43;;;4.70;;
53875;SDS011;39789;53.216;5.624;2022-07-04T03:32:10;5.72;;;3.80;;
53875;SDS011;39789;53.216;5.624;2022-07-04T03:34:36;4.88;;;3.50;;
53875;SDS011;39789;53.216;5.624;2022-07-04T03:37:01;8.90;;;3.90;;
53875;SDS011;39789;53.216;5.624;2022-07-04T03:39:27;5.03;;;3.10;;
53875;SDS011;39789;53.216;5.624;2022-07-04T03:41:53;6.43;;;3.35;;
53875;SDS011;39789;53.216;5.624;2022-07-04T03:44:18;7.38;;;2.88;;
53875;SDS011;39789;53.216;5.624;2022-07-04T03:46:44;9.23;;;3.42;;
53875;SDS011;39789;53.216;5.624;2022-07-04T03:49:09;4.90;;;3.08;;
53875;SDS011;39789;53.216;5.624;2022-07-04T03:51:35;6.10;;;3.38;;
53875;SDS011;39789;53.216;5.624;2022-07-04T03:54:01;7.20;;;3.33;;
53875;SDS011;39789;53.216;5.624;2022-07-04T03:56:26;5.40;;;3.97;;
53875;SDS011;39789;53.216;5.624;2022-07-04T03:58:52;7.30;;;3.22;;
53875;SDS011;39789;53.216;5.624;2022-07-04T04:01:18;9.45;;;4.00;;
53875;SDS011;39789;53.216;5.624;2022-07-04T04:03:47;5.57;;;3.20;;
53875;SDS011;39789;53.216;5.624;2022-07-04T04:06:31;3.70;;;2.63;;
53875;SDS011;39789;53.216;5.624;2022-07-04T04:08:57;4.32;;;3.17;;
53875;SDS011;39789;53.216;5.624;2022-07-04T04:11:23;5.25;;;3.20;;
53875;SDS011;39789;53.216;5.624;2022-07-04T04:13:48;4.53;;;3.03;;
53875;SDS011;39789;53.216;5.624;2022-07-04T04:16:14;5.03;;;3.03;;
53875;SDS011;39789;53.216;5.624;2022-07-04T04:18:40;4.50;;;2.97;;
53875;SDS011;39789;53.216;5.624;2022-07-04T04:21:06;5.97;;;3.17;;
53875;SDS011;39789;53.216;5.624;2022-07-04T04:23:31;4.65;;;2.63;;
53875;SDS011;39789;53.216;5.624;2022-07-04T04:25:57;5.80;;;2.70;;
53875;SDS011;39789;53.216;5.624;2022-07-04T04:28:22;5.95;;;3.20;;
53875;SDS011;39789;53.216;5.624;2022-07-04T04:30:49;5.38;;;2.88;;
53875;SDS011;39789;53.216;5.624;2022-07-04T04:33:15;5.88;;;3.05;;
53875;SDS011;39789;53.216;5.624;2022-07-04T04:35:41;3.92;;;2.92;;
53875;SDS011;39789;53.216;5.624;2022-07-04T04:38:06;4.15;;;3.10;;
53875;SDS011;39789;53.216;5.624;2022-07-04T04:40:32;3.78;;;2.58;;
53875;SDS011;39789;53.216;5.624;2022-07-04T04:42:58;2.95;;;2.67;;
53875;SDS011;39789;53.216;5.624;2022-07-04T04:45:24;4.75;;;2.65;;
53875;SDS011;39789;53.216;5.624;2022-07-04T04:47:49;4.93;;;2.67;;
53875;SDS011;39789;53.216;5.624;2022-07-04T04:50:16;3.80;;;3.20;;
53875;SDS011;39789;53.216;5.624;2022-07-04T04:52:42;4.25;;;2.65;;
53875;SDS011;39789;53.216;5.624;2022-07-04T04:55:08;4.15;;;2.90;;
53875;SDS011;39789;53.216;5.624;2022-07-04T04:57:34;4.68;;;2.60;;
53875;SDS011;39789;53.216;5.624;2022-07-04T05:00:00;4.70;;;2.83;;
53875;SDS011;39789;53.216;5.624;2022-07-04T05:02:26;4.28;;;2.80;;
53875;SDS011;39789;53.216;5.624;2022-07-04T05:04:52;4.55;;;2.72;;
53875;SDS011;39789;53.216;5.624;2022-07-04T05:07:18;3.00;;;2.70;;
53875;SDS011;39789;53.216;5.624;2022-07-04T05:09:44;4.13;;;2.78;;
53875;SDS011;39789;53.216;5.624;2022-07-04T05:12:09;4.60;;;3.13;;
53875;SDS011;39789;53.216;5.624;2022-07-04T05:14:35;5.10;;;3.03;;
53875;SDS011;39789;53.216;5.624;2022-07-04T05:17:01;2.92;;;2.60;;
53875;SDS011;39789;53.216;5.624;2022-07-04T05:19:27;5.35;;;3.10;;
53875;SDS011;39789;53.216;5.624;2022-07-04T05:21:52;4.80;;;2.67;;
53875;SDS011;39789;53.216;5.624;2022-07-04T05:24:18;3.97;;;2.33;;
53875;SDS011;39789;53.216;5.624;2022-07-04T05:26:44;4.72;;;2.53;;
53875;SDS011;39789;53.216;5.624;2022-07-04T05:29:09;4.50;;;2.67;;
53875;SDS011;39789;53.216;5.624;2022-07-04T05:31:35;3.28;;;1.92;;
53875;SDS011;39789;53.216;5.624;2022-07-04T05:34:01;3.72;;;2.20;;
53875;SDS011;39789;53.216;5.624;2022-07-04T05:36:30;4.22;;;2.00;;
53875;SDS011;39789;53.216;5.624;2022-07-04T05:38:56;4.05;;;2.05;;
53875;SDS011;39789;53.216;5.624;2022-07-04T05:41:22;4.55;;;2.25;;
53875;SDS011;39789;53.216;5.624;2022-07-04T05:43:48;3.63;;;1.90;;
53875;SDS011;39789;53.216;5.624;2022-07-04T05:46:14;5.25;;;2.30;;
53875;SDS011;39789;53.216;5.624;2022-07-04T05:48:39;5.80;;;2.60;;
53875;SDS011;39789;53.216;5.624;2022-07-04T05:51:05;3.88;;;2.40;;
53875;SDS011;39789;53.216;5.624;2022-07-04T05:53:31;3.40;;;1.70;;
53875;SDS011;39789;53.216;5.624;2022-07-04T05:55:59;4.82;;;1.90;;
53875;SDS011;39789;53.216;5.624;2022-07-04T05:58:25;3.25;;;1.67;;
53875;SDS011;39789;53.216;5.624;2022-07-04T06:00:54;2.17;;;1.48;;
53875;SDS011;39789;53.216;5.624;2022-07-04T06:03:20;1.48;;;1.30;;
53875;SDS011;39789;53.216;5.624;2022-07-04T06:05:45;2.60;;;1.50;;
53875;SDS011;39789;53.216;5.624;2022-07-04T06:08:11;2.60;;;1.50;;
53875;SDS011;39789;53.216;5.624;2022-07-04T06:10:37;2.78;;;1.50;;
53875;SDS011;39789;53.216;5.624;2022-07-04T06:13:03;3.33;;;1.50;;
53875;SDS011;39789;53.216;5.624;2022-07-04T06:15:30;2.83;;;1.45;;
53875;SDS011;39789;53.216;5.624;2022-07-04T06:17:56;3.28;;;1.35;;
53875;SDS011;39789;53.216;5.624;2022-07-04T06:20:22;1.40;;;1.27;;
53875;SDS011;39789;53.216;5.624;2022-07-04T06:22:48;2.97;;;1.55;;
53875;SDS011;39789;53.216;5.624;2022-07-04T06:25:15;4.25;;;1.50;;
53875;SDS011;39789;53.216;5.624;2022-07-04T06:27:42;2.03;;;1.30;;
53875;SDS011;39789;53.216;5.624;2022-07-04T06:30:09;1.42;;;1.13;;
53875;SDS011;39789;53.216;5.624;2022-07-04T06:32:42;1.88;;;1.33;;
53875;SDS011;39789;53.216;5.624;2022-07-04T06:35:12;2.88;;;1.17;;
53875;SDS011;39789;53.216;5.624;2022-07-04T06:37:58;1.13;;;1.02;;
53875;SDS011;39789;53.216;5.624;2022-07-04T06:40:24;1.75;;;1.40;;
53875;SDS011;39789;53.216;5.624;2022-07-04T06:42:52;2.45;;;1.45;;
53875;SDS011;39789;53.216;5.624;2022-07-04T06:45:18;3.22;;;1.42;;
53875;SDS011;39789;53.216;5.624;2022-07-04T06:47:44;1.33;;;1.20;;
53875;SDS011;39789;53.216;5.624;2022-07-04T06:50:09;1.95;;;1.13;;
53875;SDS011;39789;53.216;5.624;2022-07-04T06:52:37;1.65;;;0.88;;
53875;SDS011;39789;53.216;5.624;2022-07-04T06:57:31;3.78;;;1.52;;
53875;SDS011;39789;53.216;5.624;2022-07-04T06:59:57;1.58;;;1.40;;
53875;SDS011;39789;53.216;5.624;2022-07-04T07:02:22;3.25;;;1.50;;
53875;SDS011;39789;53.216;5.624;2022-07-04T07:04:48;1.40;;;1.08;;
53875;SDS011;39789;53.216;5.624;2022-07-04T07:07:14;1.67;;;1.15;;
53875;SDS011;39789;53.216;5.624;2022-07-04T07:09:39;1.77;;;1.15;;
53875;SDS011;39789;53.216;5.624;2022-07-04T07:12:05;2.75;;;1.30;;
53875;SDS011;39789;53.216;5.624;2022-07-04T07:14:31;1.45;;;1.20;;
53875;SDS011;39789;53.216;5.624;2022-07-04T07:16:58;3.58;;;1.05;;
53875;SDS011;39789;53.216;5.624;2022-07-04T07:19:24;4.18;;;1.67;;
53875;SDS011;39789;53.216;5.624;2022-07-04T07:21:50;5.35;;;2.05;;
53875;SDS011;39789;53.216;5.624;2022-07-04T07:24:15;4.07;;;1.45;;
53875;SDS011;39789;53.216;5.624;2022-07-04T07:26:41;3.50;;;1.30;;
53875;SDS011;39789;53.216;5.624;2022-07-04T07:29:10;3.00;;;1.60;;
53875;SDS011;39789;53.216;5.624;2022-07-04T07:31:35;3.70;;;1.30;;
53875;SDS011;39789;53.216;5.624;2022-07-04T07:34:01;3.58;;;1.60;;
53875;SDS011;39789;53.216;5.624;2022-07-04T07:36:27;2.65;;;1.85;;
53875;SDS011;39789;53.216;5.624;2022-07-04T07:38:52;5.82;;;1.85;;
53875;SDS011;39789;53.216;5.624;2022-07-04T07:41:21;6.93;;;1.95;;
53875;SDS011;39789;53.216;5.624;2022-07-04T07:43:46;2.88;;;1.42;;
53875;SDS011;39789;53.216;5.624;2022-07-04T07:48:42;3.60;;;1.88;;
53875;SDS011;39789;53.216;5.624;2022-07-04T07:51:11;3.22;;;1.60;;
53875;SDS011;39789;53.216;5.624;2022-07-04T07:53:39;2.10;;;1.92;;
53875;SDS011;39789;53.216;5.624;2022-07-04T07:56:05;3.92;;;1.70;;
53875;SDS011;39789;53.216;5.624;2022-07-04T07:58:30;2.15;;;1.63;;
53875;SDS011;39789;53.216;5.624;2022-07-04T08:00:56;4.28;;;1.60;;
53875;SDS011;39789;53.216;5.624;2022-07-04T08:03:22;4.55;;;2.05;;
53875;SDS011;39789;53.216;5.624;2022-07-04T08:06:07;7.78;;;1.95;;
53875;SDS011;39789;53.216;5.624;2022-07-04T08:08:37;3.75;;;1.90;;
53875;SDS011;39789;53.216;5.624;2022-07-04T08:11:03;2.88;;;1.38;;
53875;SDS011;39789;53.216;5.624;2022-07-04T08:13:29;5.00;;;2.00;;
53875;SDS011;39789;53.216;5.624;2022-07-04T08:15:54;3.15;;;1.63;;
53875;SDS011;39789;53.216;5.624;2022-07-04T08:18:20;2.72;;;1.70;;
53875;SDS011;39789;53.216;5.624;2022-07-04T08:20:47;2.20;;;1.60;;
53875;SDS011;39789;53.216;5.624;2022-07-04T08:23:15;4.00;;;1.95;;
53875;SDS011;39789;53.216;5.624;2022-07-04T08:25:41;5.88;;;2.00;;
53875;SDS011;39789;53.216;5.624;2022-07-04T08:28:06;2.83;;;1.92;;
53875;SDS011;39789;53.216;5.624;2022-07-04T08:30:33;2.85;;;1.75;;
53875;SDS011;39789;53.216;5.624;2022-07-04T08:32:58;2.78;;;1.95;;
53875;SDS011;39789;53.216;5.624;2022-07-04T08:35:27;3.20;;;2.00;;
53875;SDS011;39789;53.216;5.624;2022-07-04T08:37:53;4.05;;;2.20;;
53875;SDS011;39789;53.216;5.624;2022-07-04T08:40:24;4.10;;;2.20;;
53875;SDS011;39789;53.216;5.624;2022-07-04T08:42:51;2.85;;;1.80;;
53875;SDS011;39789;53.216;5.624;2022-07-04T08:45:25;2.80;;;2.13;;
53875;SDS011;39789;53.216;5.624;2022-07-04T08:47:52;1.80;;;1.30;;
53875;SDS011;39789;53.216;5.624;2022-07-04T08:50:32;3.22;;;1.73;;
53875;SDS011;39789;53.216;5.624;2022-07-04T08:55:27;2.00;;;1.60;;
53875;SDS011;39789;53.216;5.624;2022-07-04T09:00:42;2.35;;;2.03;;
53875;SDS011;39789;53.216;5.624;2022-07-04T09:03:08;4.18;;;1.92;;
53875;SDS011;39789;53.216;5.624;2022-07-04T09:05:34;2.40;;;1.80;;
53875;SDS011;39789;53.216;5.624;2022-07-04T09:08:04;3.65;;;1.70;;
53875;SDS011;39789;53.216;5.624;2022-07-04T09:10:36;2.60;;;1.30;;
53875;SDS011;39789;53.216;5.624;2022-07-04T09:13:03;3.10;;;1.65;;
53875;SDS011;39789;53.216;5.624;2022-07-04T09:15:33;2.95;;;1.70;;
53875;SDS011;39789;53.216;5.624;2022-07-04T09:18:00;3.50;;;1.40;;
53875;SDS011;39789;53.216;5.624;2022-07-04T09:20:27;4.32;;;1.90;;
53875;SDS011;39789;53.216;5.624;2022-07-04T09:22:55;4.10;;;1.40;;
53875;SDS011;39789;53.216;5.624;2022-07-04T09:25:21;3.08;;;1.60;;
53875;SDS011;39789;53.216;5.624;2022-07-04T09:27:54;1.60;;;1.40;;
53875;SDS011;39789;53.216;5.624;2022-07-04T09:30:25;4.60;;;1.90;;
53875;SDS011;39789;53.216;5.624;2022-07-04T09:32:52;3.22;;;1.58;;
53875;SDS011;39789;53.216;5.624;2022-07-04T09:35:25;3.35;;;1.50;;
53875;SDS011;39789;53.216;5.624;2022-07-04T09:37:52;5.38;;;1.60;;
53875;SDS011;39789;53.216;5.624;2022-07-04T09:40:30;3.03;;;1.40;;
53875;SDS011;39789;53.216;5.624;2022-07-04T09:42:57;2.97;;;1.50;;
53875;SDS011;39789;53.216;5.624;2022-07-04T09:45:24;3.20;;;1.55;;
53875;SDS011;39789;53.216;5.624;2022-07-04T09:47:53;3.97;;;1.50;;
53875;SDS011;39789;53.216;5.624;2022-07-04T09:50:24;4.20;;;1.92;;
53875;SDS011;39789;53.216;5.624;2022-07-04T09:57:55;2.78;;;1.50;;
53875;SDS011;39789;53.216;5.624;2022-07-04T10:00:24;2.15;;;1.58;;
53875;SDS011;39789;53.216;5.624;2022-07-04T10:02:53;3.40;;;1.10;;
53875;SDS011;39789;53.216;5.624;2022-07-04T10:05:27;2.92;;;1.60;;
53875;SDS011;39789;53.216;5.624;2022-07-04T10:07:55;2.53;;;1.52;;
53875;SDS011;39789;53.216;5.624;2022-07-04T10:10:31;8.50;;;1.75;;
53875;SDS011;39789;53.216;5.624;2022-07-04T10:15:40;3.05;;;1.30;;
53875;SDS011;39789;53.216;5.624;2022-07-04T10:18:08;1.50;;;1.25;;
53875;SDS011;39789;53.216;5.624;2022-07-04T10:20:35;3.95;;;1.60;;
53875;SDS011;39789;53.216;5.624;2022-07-04T10:23:01;3.40;;;1.58;;
53875;SDS011;39789;53.216;5.624;2022-07-04T10:25:28;2.38;;;1.40;;
53875;SDS011;39789;53.216;5.624;2022-07-04T10:27:54;3.83;;;1.60;;
53875;SDS011;39789;53.216;5.624;2022-07-04T10:30:25;3.08;;;1.40;;
53875;SDS011;39789;53.216;5.624;2022-07-04T10:32:56;2.10;;;1.30;;
53875;SDS011;39789;53.216;5.624;2022-07-04T10:38:19;2.43;;;1.20;;
53875;SDS011;39789;53.216;5.624;2022-07-04T10:40:56;3.65;;;1.60;;
53875;SDS011;39789;53.216;5.624;2022-07-04T10:48:53;2.97;;;1.30;;
53875;SDS011;39789;53.216;5.624;2022-07-04T10:54:49;2.30;;;1.17;;
53875;SDS011;39789;53.216;5.624;2022-07-04T10:59:26;3.28;;;1.67;;
53875;SDS011;39789;53.216;5.624;2022-07-04T11:07:18;2.20;;;1.23;;
53875;SDS011;39789;53.216;5.624;2022-07-04T11:20:42;3.63;;;1.45;;
53875;SDS011;39789;53.216;5.624;2022-07-04T11:23:10;4.40;;;1.80;;
53875;SDS011;39789;53.216;5.624;2022-07-04T11:25:37;2.28;;;1.55;;
53875;SDS011;39789;53.216;5.624;2022-07-04T11:30:50;3.60;;;1.30;;
53875;SDS011;39789;53.216;5.624;2022-07-04T11:33:22;3.28;;;2.05;;
53875;SDS011;39789;53.216;5.624;2022-07-04T11:38:55;4.22;;;1.92;;
53875;SDS011;39789;53.216;5.624;2022-07-04T11:41:24;3.10;;;1.60;;
53875;SDS011;39789;53.216;5.624;2022-07-04T11:44:15;2.88;;;1.40;;
53875;SDS011;39789;53.216;5.624;2022-07-04T11:47:31;4.85;;;1.30;;
53875;SDS011;39789;53.216;5.624;2022-07-04T11:50:00;8.82;;;1.58;;
53875;SDS011;39789;53.216;5.624;2022-07-04T11:52:29;1.55;;;1.45;;
53875;SDS011;39789;53.216;5.624;2022-07-04T11:55:10;3.13;;;1.50;;
53875;SDS011;39789;53.216;5.624;2022-07-04T11:57:40;5.65;;;1.60;;
53875;SDS011;39789;53.216;5.624;2022-07-04T12:00:14;3.58;;;1.30;;
53875;SDS011;39789;53.216;5.624;2022-07-04T12:02:43;5.18;;;1.85;;
53875;SDS011;39789;53.216;5.624;2022-07-04T12:05:13;3.15;;;1.33;;
53875;SDS011;39789;53.216;5.624;2022-07-04T12:07:41;3.60;;;1.20;;
53875;SDS011;39789;53.216;5.624;2022-07-04T12:10:13;2.20;;;1.27;;
53875;SDS011;39789;53.216;5.624;2022-07-04T12:12:52;3.65;;;1.70;;
53875;SDS011;39789;53.216;5.624;2022-07-04T12:15:20;1.90;;;1.30;;
53875;SDS011;39789;53.216;5.624;2022-07-04T12:17:50;6.18;;;1.65;;
53875;SDS011;39789;53.216;5.624;2022-07-04T12:20:20;2.38;;;1.20;;
53875;SDS011;39789;53.216;5.624;2022-07-04T12:22:52;2.20;;;1.23;;
53875;SDS011;39789;53.216;5.624;2022-07-04T12:25:27;1.85;;;1.15;;
53875;SDS011;39789;53.216;5.624;2022-07-04T12:28:07;6.03;;;1.60;;
53875;SDS011;39789;53.216;5.624;2022-07-04T12:30:35;4.25;;;1.38;;
53875;SDS011;39789;53.216;5.624;2022-07-04T12:33:07;3.00;;;1.17;;
53875;SDS011;39789;53.216;5.624;2022-07-04T12:35:43;1.75;;;1.00;;
53875;SDS011;39789;53.216;5.624;2022-07-04T12:38:16;5.57;;;1.10;;
53875;SDS011;39789;53.216;5.624;2022-07-04T12:43:15;1.75;;;1.10;;
53875;SDS011;39789;53.216;5.624;2022-07-04T12:45:48;2.13;;;1.10;;
53875;SDS011;39789;53.216;5.624;2022-07-04T12:48:25;2.92;;;0.90;;
53875;SDS011;39789;53.216;5.624;2022-07-04T12:50:54;1.20;;;1.00;;
53875;SDS011;39789;53.216;5.624;2022-07-04T12:53:35;2.88;;;1.08;;
53875;SDS011;39789;53.216;5.624;2022-07-04T12:56:02;3.33;;;1.10;;
53875;SDS011;39789;53.216;5.624;2022-07-04T12:58:28;1.98;;;0.90;;
53875;SDS011;39789;53.216;5.624;2022-07-04T13:00:54;2.13;;;0.98;;
53875;SDS011;39789;53.216;5.624;2022-07-04T13:03:20;2.60;;;0.90;;
53875;SDS011;39789;53.216;5.624;2022-07-04T13:05:49;3.13;;;1.23;;
53875;SDS011;39789;53.216;5.624;2022-07-04T13:08:14;2.35;;;1.02;;
53875;SDS011;39789;53.216;5.624;2022-07-04T13:10:40;1.48;;;0.90;;
53875;SDS011;39789;53.216;5.624;2022-07-04T13:13:06;3.33;;;1.75;;
53875;SDS011;39789;53.216;5.624;2022-07-04T13:15:37;1.88;;;1.20;;
53875;SDS011;39789;53.216;5.624;2022-07-04T13:20:31;1.60;;;0.75;;
53875;SDS011;39789;53.216;5.624;2022-07-04T13:22:57;2.10;;;0.80;;
53875;SDS011;39789;53.216;5.624;2022-07-04T13:25:27;3.35;;;1.00;;
53875;SDS011;39789;53.216;5.624;2022-07-04T13:27:52;1.70;;;1.55;;
53875;SDS011;39789;53.216;5.624;2022-07-04T13:30:18;0.70;;;0.70;;
53875;SDS011;39789;53.216;5.624;2022-07-04T13:32:44;2.67;;;1.02;;
53875;SDS011;39789;53.216;5.624;2022-07-04T13:35:10;1.10;;;0.80;;
53875;SDS011;39789;53.216;5.624;2022-07-04T13:37:36;2.08;;;1.25;;
53875;SDS011;39789;53.216;5.624;2022-07-04T13:40:01;2.47;;;0.90;;
53875;SDS011;39789;53.216;5.624;2022-07-04T13:42:30;2.63;;;0.93;;
53875;SDS011;39789;53.216;5.624;2022-07-04T13:45:19;1.88;;;1.20;;
53875;SDS011;39789;53.216;5.624;2022-07-04T13:47:45;0.98;;;0.93;;
53875;SDS011;39789;53.216;5.624;2022-07-04T13:50:10;2.97;;;1.05;;
53875;SDS011;39789;53.216;5.624;2022-07-04T13:52:36;1.85;;;0.80;;
53875;SDS011;39789;53.216;5.624;2022-07-04T13:55:02;1.27;;;1.10;;
53875;SDS011;39789;53.216;5.624;2022-07-04T13:57:28;0.88;;;0.80;;
53875;SDS011;39789;53.216;5.624;2022-07-04T13:59:57;4.72;;;1.33;;
53875;SDS011;39789;53.216;5.624;2022-07-04T14:02:28;1.27;;;1.08;;
53875;SDS011;39789;53.216;5.624;2022-07-04T14:04:53;2.60;;;1.15;;
53875;SDS011;39789;53.216;5.624;2022-07-04T14:07:19;1.92;;;0.65;;
53875;SDS011;39789;53.216;5.624;2022-07-04T14:09:45;1.27;;;0.90;;
53875;SDS011;39789;53.216;5.624;2022-07-04T14:12:11;2.80;;;0.90;;
53875;SDS011;39789;53.216;5.624;2022-07-04T14:14:37;0.95;;;0.80;;
53875;SDS011;39789;53.216;5.624;2022-07-04T14:17:03;5.13;;;0.90;;
53875;SDS011;39789;53.216;5.624;2022-07-04T14:19:31;3.83;;;1.20;;
53875;SDS011;39789;53.216;5.624;2022-07-04T14:21:57;2.05;;;0.82;;
53875;SDS011;39789;53.216;5.624;2022-07-04T14:24:23;2.63;;;0.85;;
53875;SDS011;39789;53.216;5.624;2022-07-04T14:26:51;2.58;;;0.88;;
53875;SDS011;39789;53.216;5.624;2022-07-04T14:29:19;2.45;;;1.13;;
53875;SDS011;39789;53.216;5.624;2022-07-04T14:31:46;2.60;;;1.17;;
53875;SDS011;39789;53.216;5.624;2022-07-04T14:34:12;1.60;;;0.88;;
53875;SDS011;39789;53.216;5.624;2022-07-04T14:36:40;1.25;;;0.80;;
53875;SDS011;39789;53.216;5.624;2022-07-04T14:39:06;1.00;;;0.90;;
53875;SDS011;39789;53.216;5.624;2022-07-04T14:41:32;1.98;;;0.77;;
53875;SDS011;39789;53.216;5.624;2022-07-04T14:43:58;3.13;;;1.10;;
53875;SDS011;39789;53.216;5.624;2022-07-04T14:46:25;0.70;;;0.55;;
53875;SDS011;39789;53.216;5.624;2022-07-04T14:48:51;4.60;;;1.17;;
53875;SDS011;39789;53.216;5.624;2022-07-04T14:51:18;2.13;;;0.85;;
53875;SDS011;39789;53.216;5.624;2022-07-04T14:53:44;0.85;;;0.85;;
53875;SDS011;39789;53.216;5.624;2022-07-04T14:56:12;1.13;;;0.90;;
53875;SDS011;39789;53.216;5.624;2022-07-04T14:58:38;1.25;;;0.90;;
53875;SDS011;39789;53.216;5.624;2022-07-04T15:01:06;2.33;;;1.20;;
53875;SDS011;39789;53.216;5.624;2022-07-04T15:03:32;2.42;;;1.10;;
53875;SDS011;39789;53.216;5.624;2022-07-04T15:06:01;2.00;;;0.77;;
53875;SDS011;39789;53.216;5.624;2022-07-04T15:08:26;2.28;;;0.88;;
53875;SDS011;39789;53.216;5.624;2022-07-04T15:10:52;1.42;;;0.85;;
53875;SDS011;39789;53.216;5.624;2022-07-04T15:13:17;1.45;;;1.00;;
53875;SDS011;39789;53.216;5.624;2022-07-04T15:15:46;0.63;;;0.63;;
53875;SDS011;39789;53.216;5.624;2022-07-04T15:18:12;2.38;;;0.98;;
53875;SDS011;39789;53.216;5.624;2022-07-04T15:20:38;1.20;;;0.90;;
53875;SDS011;39789;53.216;5.624;2022-07-04T15:23:25;1.20;;;0.80;;
53875;SDS011;39789;53.216;5.624;2022-07-04T15:26:13;3.35;;;1.58;;
53875;SDS011;39789;53.216;5.624;2022-07-04T15:28:38;0.98;;;0.90;;
53875;SDS011;39789;53.216;5.624;2022-07-04T15:31:04;2.20;;;1.27;;
53875;SDS011;39789;53.216;5.624;2022-07-04T15:33:33;1.52;;;1.02;;
53875;SDS011;39789;53.216;5.624;2022-07-04T15:35:59;1.23;;;0.82;;
53875;SDS011;39789;53.216;5.624;2022-07-04T15:38:24;2.28;;;1.10;;
53875;SDS011;39789;53.216;5.624;2022-07-04T15:40:50;1.00;;;0.90;;
53875;SDS011;39789;53.216;5.624;2022-07-04T15:43:16;5.72;;;1.73;;
53875;SDS011;39789;53.216;5.624;2022-07-04T15:45:42;1.50;;;1.15;;
53875;SDS011;39789;53.216;5.624;2022-07-04T15:48:08;1.67;;;0.88;;
53875;SDS011;39789;53.216;5.624;2022-07-04T15:50:34;1.27;;;1.00;;